Cannon Ball, North Dakota
Current Conditions -  °F | °C
As of 2:35 AM on Friday 31 Oct 2014 (Local Time) from K7L2 Reporting Station
Clear Clear  
Wind Chill:   Ceiling: Unl
Heat Index: 10°   Visibility: 10mi
Dew Point: 10°   Wind: 5mph
Humidity: 100%   Direction: 110°ESE
Pressure: 30.58"   Gusts: NA
Location:  46.4°N, 100.6°W
Report Text: K7L2 310835Z AUTO 11004KT 10SM CLR M12/M12 A3058 RMK AO2 PWINO PNO
Loading
Personal Weather Stations






























Interactive Weather Map New forecast layout! Learn more

10-Day Weather Forecast

Advertisements
Track Severe Weather on mobile